sensor_id;sensor_type;location;lat;lon;timestamp;pressure;altitude;pressure_sealevel;temperature;humidity
86525;BME280;77167;51.392;12.342;2024-03-22T00:01:54;100794.06;;;6.72;81.33
86525;BME280;77167;51.392;12.342;2024-03-22T00:04:20;100792.34;;;6.71;81.43
86525;BME280;77167;51.392;12.342;2024-03-22T00:06:48;100787.28;;;6.68;81.53
86525;BME280;77167;51.392;12.342;2024-03-22T00:09:14;100780.50;;;6.64;81.66
86525;BME280;77167;51.392;12.342;2024-03-22T00:11:41;100776.72;;;6.57;81.59
86525;BME280;77167;51.392;12.342;2024-03-22T00:14:07;100790.63;;;6.42;81.70
86525;BME280;77167;51.392;12.342;2024-03-22T00:16:33;100773.13;;;6.38;82.15
86525;BME280;77167;51.392;12.342;2024-03-22T00:18:58;100777.88;;;6.44;82.12
86525;BME280;77167;51.392;12.342;2024-03-22T00:21:24;100772.66;;;6.43;81.53
86525;BME280;77167;51.392;12.342;2024-03-22T00:23:49;100769.69;;;6.46;81.62
86525;BME280;77167;51.392;12.342;2024-03-22T00:26:15;100765.63;;;6.42;82.08
86525;BME280;77167;51.392;12.342;2024-03-22T00:28:41;100757.59;;;6.32;81.70
86525;BME280;77167;51.392;12.342;2024-03-22T00:31:06;100762.44;;;6.19;81.63
86525;BME280;77167;51.392;12.342;2024-03-22T00:33:32;100757.63;;;6.23;80.96
86525;BME280;77167;51.392;12.342;2024-03-22T00:35:58;100758.75;;;6.20;80.64
86525;BME280;77167;51.392;12.342;2024-03-22T00:38:23;100762.19;;;6.03;81.31
86525;BME280;77167;51.392;12.342;2024-03-22T00:40:49;100755.72;;;5.96;80.78
86525;BME280;77167;51.392;12.342;2024-03-22T00:43:14;100751.34;;;5.95;80.05
86525;BME280;77167;51.392;12.342;2024-03-22T00:45:39;100753.31;;;5.73;80.64
86525;BME280;77167;51.392;12.342;2024-03-22T00:48:05;100754.59;;;5.79;81.21
86525;BME280;77167;51.392;12.342;2024-03-22T00:50:31;100750.03;;;5.89;80.96
86525;BME280;77167;51.392;12.342;2024-03-22T00:52:56;100743.13;;;5.77;80.70
86525;BME280;77167;51.392;12.342;2024-03-22T00:55:22;100742.88;;;5.70;81.64
86525;BME280;77167;51.392;12.342;2024-03-22T00:57:48;100744.56;;;5.71;81.48
86525;BME280;77167;51.392;12.342;2024-03-22T01:00:13;100740.59;;;5.75;81.85
86525;BME280;77167;51.392;12.342;2024-03-22T01:02:40;100732.16;;;5.61;81.98
86525;BME280;77167;51.392;12.342;2024-03-22T01:05:06;100723.13;;;5.62;82.01
86525;BME280;77167;51.392;12.342;2024-03-22T01:07:31;100721.13;;;5.64;82.62
86525;BME280;77167;51.392;12.342;2024-03-22T01:09:57;100715.47;;;5.67;82.52
86525;BME280;77167;51.392;12.342;2024-03-22T01:12:22;100714.38;;;5.40;83.13
86525;BME280;77167;51.392;12.342;2024-03-22T01:14:47;100712.69;;;5.39;83.69
86525;BME280;77167;51.392;12.342;2024-03-22T01:17:13;100707.59;;;5.55;83.37
86525;BME280;77167;51.392;12.342;2024-03-22T01:19:38;100704.22;;;5.53;83.44
86525;BME280;77167;51.392;12.342;2024-03-22T01:22:04;100700.00;;;5.32;83.66
86525;BME280;77167;51.392;12.342;2024-03-22T01:24:29;100692.66;;;5.43;84.24
86525;BME280;77167;51.392;12.342;2024-03-22T01:26:55;100701.97;;;5.49;84.22
86525;BME280;77167;51.392;12.342;2024-03-22T01:29:20;100691.66;;;5.54;83.55
86525;BME280;77167;51.392;12.342;2024-03-22T01:31:47;100684.34;;;5.56;83.88
86525;BME280;77167;51.392;12.342;2024-03-22T01:34:12;100687.59;;;5.50;83.51
86525;BME280;77167;51.392;12.342;2024-03-22T01:36:38;100679.94;;;5.55;83.85
86525;BME280;77167;51.392;12.342;2024-03-22T01:39:03;100680.25;;;5.62;83.36
86525;BME280;77167;51.392;12.342;2024-03-22T01:41:29;100679.09;;;5.64;83.52
86525;BME280;77167;51.392;12.342;2024-03-22T01:43:54;100674.59;;;5.55;83.54
86525;BME280;77167;51.392;12.342;2024-03-22T01:46:19;100672.91;;;5.54;84.69
86525;BME280;77167;51.392;12.342;2024-03-22T01:48:45;100668.09;;;5.67;84.61
86525;BME280;77167;51.392;12.342;2024-03-22T01:51:10;100657.09;;;5.70;84.24
86525;BME280;77167;51.392;12.342;2024-03-22T01:53:37;100661.88;;;5.76;84.19
86525;BME280;77167;51.392;12.342;2024-03-22T01:56:03;100654.66;;;5.86;83.68
86525;BME280;77167;51.392;12.342;2024-03-22T01:58:28;100651.84;;;5.78;83.76
86525;BME280;77167;51.392;12.342;2024-03-22T02:00:54;100645.91;;;5.84;83.92
86525;BME280;77167;51.392;12.342;2024-03-22T02:03:20;100645.75;;;5.96;83.42
86525;BME280;77167;51.392;12.342;2024-03-22T02:05:45;100636.47;;;5.80;83.67
86525;BME280;77167;51.392;12.342;2024-03-22T02:08:10;100636.19;;;5.83;83.94
86525;BME280;77167;51.392;12.342;2024-03-22T02:10:36;100633.19;;;5.96;84.61
86525;BME280;77167;51.392;12.342;2024-03-22T02:13:01;100638.66;;;6.14;83.91
86525;BME280;77167;51.392;12.342;2024-03-22T02:15:27;100638.03;;;6.20;83.52
86525;BME280;77167;51.392;12.342;2024-03-22T02:17:52;100637.47;;;6.26;83.22
86525;BME280;77167;51.392;12.342;2024-03-22T02:20:17;100622.91;;;6.29;83.00
86525;BME280;77167;51.392;12.342;2024-03-22T02:22:43;100613.13;;;6.37;82.72
86525;BME280;77167;51.392;12.342;2024-03-22T02:25:08;100609.72;;;6.35;82.45
86525;BME280;77167;51.392;12.342;2024-03-22T02:27:34;100611.66;;;6.43;82.69
86525;BME280;77167;51.392;12.342;2024-03-22T02:30:00;100602.75;;;6.42;82.19
86525;BME280;77167;51.392;12.342;2024-03-22T02:32:25;100601.75;;;6.43;82.15
86525;BME280;77167;51.392;12.342;2024-03-22T02:34:50;100595.19;;;6.38;82.52
86525;BME280;77167;51.392;12.342;2024-03-22T02:37:16;100601.97;;;6.32;82.77
86525;BME280;77167;51.392;12.342;2024-03-22T02:39:41;100607.19;;;6.34;83.08
86525;BME280;77167;51.392;12.342;2024-03-22T02:42:07;100602.06;;;6.40;82.95
86525;BME280;77167;51.392;12.342;2024-03-22T02:44:32;100604.06;;;6.38;82.82
86525;BME280;77167;51.392;12.342;2024-03-22T02:46:57;100598.56;;;6.40;82.86
86525;BME280;77167;51.392;12.342;2024-03-22T02:49:24;100593.81;;;6.52;82.59
86525;BME280;77167;51.392;12.342;2024-03-22T02:51:50;100589.72;;;6.48;82.54
86525;BME280;77167;51.392;12.342;2024-03-22T02:54:16;100595.31;;;6.36;83.21
86525;BME280;77167;51.392;12.342;2024-03-22T02:56:41;100593.03;;;6.41;82.40
86525;BME280;77167;51.392;12.342;2024-03-22T02:59:06;100594.41;;;6.46;82.22
86525;BME280;77167;51.392;12.342;2024-03-22T03:01:32;100594.13;;;6.49;81.96
86525;BME280;77167;51.392;12.342;2024-03-22T03:03:57;100590.13;;;6.53;81.80
86525;BME280;77167;51.392;12.342;2024-03-22T03:06:22;100587.28;;;6.54;82.09
86525;BME280;77167;51.392;12.342;2024-03-22T03:08:48;100584.34;;;6.48;81.78
86525;BME280;77167;51.392;12.342;2024-03-22T03:11:14;100585.19;;;6.48;82.03
86525;BME280;77167;51.392;12.342;2024-03-22T03:13:40;100585.34;;;6.47;82.26
86525;BME280;77167;51.392;12.342;2024-03-22T03:16:05;100578.31;;;6.46;82.24
86525;BME280;77167;51.392;12.342;2024-03-22T03:18:31;100569.66;;;6.52;82.23
86525;BME280;77167;51.392;12.342;2024-03-22T03:20:56;100572.03;;;6.55;81.62
86525;BME280;77167;51.392;12.342;2024-03-22T03:23:21;100567.97;;;6.51;82.00
86525;BME280;77167;51.392;12.342;2024-03-22T03:25:47;100564.44;;;6.50;82.83
86525;BME280;77167;51.392;12.342;2024-03-22T03:28:13;100565.81;;;6.54;82.44
86525;BME280;77167;51.392;12.342;2024-03-22T03:30:39;100556.84;;;6.63;81.84
86525;BME280;77167;51.392;12.342;2024-03-22T03:33:04;100556.03;;;6.63;81.90
86525;BME280;77167;51.392;12.342;2024-03-22T03:35:30;100549.41;;;6.57;82.26
86525;BME280;77167;51.392;12.342;2024-03-22T03:37:55;100547.41;;;6.59;82.35
86525;BME280;77167;51.392;12.342;2024-03-22T03:40:21;100544.03;;;6.57;81.99
86525;BME280;77167;51.392;12.342;2024-03-22T03:42:52;100541.75;;;6.62;81.90
86525;BME280;77167;51.392;12.342;2024-03-22T03:45:18;100538.59;;;6.67;81.15
86525;BME280;77167;51.392;12.342;2024-03-22T03:47:43;100542.22;;;6.76;80.90
86525;BME280;77167;51.392;12.342;2024-03-22T03:50:09;100526.94;;;6.76;80.87
86525;BME280;77167;51.392;12.342;2024-03-22T03:52:34;100533.47;;;6.73;80.95
86525;BME280;77167;51.392;12.342;2024-03-22T03:55:00;100531.47;;;6.76;81.07
86525;BME280;77167;51.392;12.342;2024-03-22T03:57:25;100528.63;;;6.77;81.30
86525;BME280;77167;51.392;12.342;2024-03-22T03:59:51;100516.63;;;6.89;81.02
86525;BME280;77167;51.392;12.342;2024-03-22T04:02:17;100509.28;;;6.91;81.06
86525;BME280;77167;51.392;12.342;2024-03-22T04:04:42;100502.53;;;6.87;81.22
86525;BME280;77167;51.392;12.342;2024-03-22T04:07:07;100515.88;;;6.79;81.07
86525;BME280;77167;51.392;12.342;2024-03-22T04:09:33;100509.66;;;6.79;81.31
86525;BME280;77167;51.392;12.342;2024-03-22T04:11:59;100502.13;;;6.82;81.88
86525;BME280;77167;51.392;12.342;2024-03-22T04:14:25;100489.47;;;6.92;81.06
86525;BME280;77167;51.392;12.342;2024-03-22T04:16:50;100487.34;;;6.96;80.91
86525;BME280;77167;51.392;12.342;2024-03-22T04:19:16;100493.47;;;6.88;80.46
86525;BME280;77167;51.392;12.342;2024-03-22T04:21:42;100499.78;;;6.79;80.91
86525;BME280;77167;51.392;12.342;2024-03-22T04:24:07;100498.78;;;6.80;80.92
86525;BME280;77167;51.392;12.342;2024-03-22T04:26:32;100489.72;;;6.81;80.95
86525;BME280;77167;51.392;12.342;2024-03-22T04:28:58;100492.88;;;6.77;80.66
86525;BME280;77167;51.392;12.342;2024-03-22T04:31:23;100487.81;;;6.73;80.62
86525;BME280;77167;51.392;12.342;2024-03-22T04:33:49;100478.94;;;6.73;80.79
86525;BME280;77167;51.392;12.342;2024-03-22T04:36:15;100471.56;;;6.75;81.66
86525;BME280;77167;51.392;12.342;2024-03-22T04:38:40;100457.97;;;6.77;80.96
86525;BME280;77167;51.392;12.342;2024-03-22T04:41:06;100450.59;;;6.79;81.31
86525;BME280;77167;51.392;12.342;2024-03-22T04:43:31;100454.53;;;6.84;80.71
86525;BME280;77167;51.392;12.342;2024-03-22T04:45:56;100461.19;;;6.80;80.56
86525;BME280;77167;51.392;12.342;2024-03-22T04:48:23;100457.66;;;6.80;80.90
86525;BME280;77167;51.392;12.342;2024-03-22T04:50:49;100452.50;;;6.86;80.70
86525;BME280;77167;51.392;12.342;2024-03-22T04:53:16;100448.91;;;6.78;80.42
86525;BME280;77167;51.392;12.342;2024-03-22T04:55:43;100445.03;;;6.72;81.19
86525;BME280;77167;51.392;12.342;2024-03-22T04:58:18;100446.88;;;6.71;81.15
86525;BME280;77167;51.392;12.342;2024-03-22T05:00:44;100446.88;;;6.71;80.97
86525;BME280;77167;51.392;12.342;2024-03-22T05:03:10;100446.72;;;6.73;81.23
86525;BME280;77167;51.392;12.342;2024-03-22T05:05:36;100443.72;;;6.76;80.97
86525;BME280;77167;51.392;12.342;2024-03-22T05:08:02;100441.19;;;6.75;80.81
86525;BME280;77167;51.392;12.342;2024-03-22T05:10:28;100444.81;;;6.65;81.32
86525;BME280;77167;51.392;12.342;2024-03-22T05:12:55;100442.09;;;6.83;81.40
86525;BME280;77167;51.392;12.342;2024-03-22T05:15:21;100439.03;;;7.04;81.99
86525;BME280;77167;51.392;12.342;2024-03-22T05:17:46;100434.38;;;7.14;80.15
86525;BME280;77167;51.392;12.342;2024-03-22T05:20:12;100437.31;;;6.95;80.06
86525;BME280;77167;51.392;12.342;2024-03-22T05:22:37;100436.72;;;6.83;80.63
86525;BME280;77167;51.392;12.342;2024-03-22T05:25:03;100436.56;;;6.85;80.33
86525;BME280;77167;51.392;12.342;2024-03-22T05:27:30;100433.31;;;6.81;80.68
86525;BME280;77167;51.392;12.342;2024-03-22T05:29:56;100434.22;;;6.90;80.42
86525;BME280;77167;51.392;12.342;2024-03-22T05:32:21;100427.03;;;6.90;80.42
86525;BME280;77167;51.392;12.342;2024-03-22T05:34:47;100432.06;;;6.93;80.38
86525;BME280;77167;51.392;12.342;2024-03-22T05:37:12;100438.28;;;6.94;80.35
86525;BME280;77167;51.392;12.342;2024-03-22T05:39:38;100444.88;;;6.99;79.49
86525;BME280;77167;51.392;12.342;2024-03-22T05:42:04;100436.81;;;6.99;79.65
86525;BME280;77167;51.392;12.342;2024-03-22T05:44:30;100435.56;;;7.12;80.31
86525;BME280;77167;51.392;12.342;2024-03-22T05:46:55;100421.78;;;7.07;80.04
86525;BME280;77167;51.392;12.342;2024-03-22T05:49:21;100434.88;;;7.10;80.43
86525;BME280;77167;51.392;12.342;2024-03-22T05:51:46;100419.47;;;7.20;79.80
86525;BME280;77167;51.392;12.342;2024-03-22T05:54:11;100423.19;;;7.27;79.24
86525;BME280;77167;51.392;12.342;2024-03-22T05:56:37;100410.66;;;7.36;79.02
86525;BME280;77167;51.392;12.342;2024-03-22T05:59:02;100409.19;;;7.41;79.27
86525;BME280;77167;51.392;12.342;2024-03-22T06:01:28;100411.38;;;7.46;79.17
86525;BME280;77167;51.392;12.342;2024-03-22T06:03:53;100415.56;;;7.48;78.14
86525;BME280;77167;51.392;12.342;2024-03-22T06:06:19;100410.56;;;7.53;78.10
86525;BME280;77167;51.392;12.342;2024-03-22T06:08:47;100408.38;;;7.57;78.30
86525;BME280;77167;51.392;12.342;2024-03-22T06:11:17;100404.91;;;7.65;77.72
86525;BME280;77167;51.392;12.342;2024-03-22T06:13:42;100416.31;;;7.67;77.71
86525;BME280;77167;51.392;12.342;2024-03-22T06:16:08;100407.09;;;7.69;77.95
86525;BME280;77167;51.392;12.342;2024-03-22T06:18:33;100403.72;;;7.75;78.05
86525;BME280;77167;51.392;12.342;2024-03-22T06:20:58;100402.91;;;7.83;77.82
86525;BME280;77167;51.392;12.342;2024-03-22T06:23:24;100398.22;;;7.93;76.93
86525;BME280;77167;51.392;12.342;2024-03-22T06:25:53;100406.97;;;7.95;76.58
86525;BME280;77167;51.392;12.342;2024-03-22T06:28:19;100393.72;;;8.02;77.23
86525;BME280;77167;51.392;12.342;2024-03-22T06:30:44;100391.88;;;8.10;77.10
86525;BME280;77167;51.392;12.342;2024-03-22T06:33:10;100388.00;;;8.21;76.42
86525;BME280;77167;51.392;12.342;2024-03-22T06:35:35;100384.31;;;8.30;75.33
86525;BME280;77167;51.392;12.342;2024-03-22T06:38:01;100375.06;;;8.33;75.31
86525;BME280;77167;51.392;12.342;2024-03-22T06:40:28;100374.25;;;8.40;74.63
86525;BME280;77167;51.392;12.342;2024-03-22T06:42:53;100373.41;;;8.48;73.47
86525;BME280;77167;51.392;12.342;2024-03-22T06:45:19;100367.34;;;8.54;73.21
86525;BME280;77167;51.392;12.342;2024-03-22T06:47:44;100375.06;;;8.65;73.45
86525;BME280;77167;51.392;12.342;2024-03-22T06:50:11;100364.97;;;8.67;72.46
86525;BME280;77167;51.392;12.342;2024-03-22T06:52:36;100365.63;;;8.77;72.49
86525;BME280;77167;51.392;12.342;2024-03-22T06:55:02;100356.38;;;8.80;71.81
86525;BME280;77167;51.392;12.342;2024-03-22T06:57:28;100351.47;;;8.92;72.06
86525;BME280;77167;51.392;12.342;2024-03-22T06:59:54;100347.06;;;8.99;71.86
86525;BME280;77167;51.392;12.342;2024-03-22T07:02:19;100343.97;;;9.10;73.07
86525;BME280;77167;51.392;12.342;2024-03-22T07:04:45;100342.94;;;9.19;72.50
86525;BME280;77167;51.392;12.342;2024-03-22T07:07:11;100335.84;;;9.26;72.98
86525;BME280;77167;51.392;12.342;2024-03-22T07:09:36;100338.00;;;9.31;72.24
86525;BME280;77167;51.392;12.342;2024-03-22T07:12:02;100334.13;;;9.33;72.04
86525;BME280;77167;51.392;12.342;2024-03-22T07:14:27;100325.56;;;9.22;69.97
86525;BME280;77167;51.392;12.342;2024-03-22T07:16:53;100327.13;;;9.16;70.64
86525;BME280;77167;51.392;12.342;2024-03-22T07:19:22;100330.16;;;9.13;70.90
86525;BME280;77167;51.392;12.342;2024-03-22T07:21:48;100323.75;;;9.14;71.11
86525;BME280;77167;51.392;12.342;2024-03-22T07:24:13;100334.53;;;9.14;71.00
86525;BME280;77167;51.392;12.342;2024-03-22T07:26:39;100331.81;;;9.22;71.58
86525;BME280;77167;51.392;12.342;2024-03-22T07:29:04;100341.84;;;9.36;71.04
86525;BME280;77167;51.392;12.342;2024-03-22T07:31:29;100348.41;;;9.42;71.26
86525;BME280;77167;51.392;12.342;2024-03-22T07:33:55;100348.38;;;9.50;71.91
86525;BME280;77167;51.392;12.342;2024-03-22T07:36:21;100349.50;;;9.56;70.93
86525;BME280;77167;51.392;12.342;2024-03-22T07:38:46;100352.19;;;9.56;69.93
86525;BME280;77167;51.392;12.342;2024-03-22T07:41:14;100346.78;;;9.64;69.91
86525;BME280;77167;51.392;12.342;2024-03-22T07:43:39;100347.44;;;9.66;69.33
86525;BME280;77167;51.392;12.342;2024-03-22T07:46:04;100354.28;;;9.77;69.65
86525;BME280;77167;51.392;12.342;2024-03-22T07:48:30;100340.06;;;9.83;69.27
86525;BME280;77167;51.392;12.342;2024-03-22T07:50:57;100343.56;;;9.91;69.17
86525;BME280;77167;51.392;12.342;2024-03-22T07:53:22;100333.91;;;9.97;68.37
86525;BME280;77167;51.392;12.342;2024-03-22T07:55:48;100332.34;;;10.03;68.56
86525;BME280;77167;51.392;12.342;2024-03-22T07:58:13;100323.44;;;10.17;68.60
86525;BME280;77167;51.392;12.342;2024-03-22T08:00:38;100326.13;;;10.25;68.16
86525;BME280;77167;51.392;12.342;2024-03-22T08:03:04;100328.09;;;10.31;68.44
86525;BME280;77167;51.392;12.342;2024-03-22T08:05:29;100336.50;;;10.36;68.94
86525;BME280;77167;51.392;12.342;2024-03-22T08:07:55;100341.31;;;10.41;69.12
86525;BME280;77167;51.392;12.342;2024-03-22T08:10:20;100334.25;;;10.40;68.22
86525;BME280;77167;51.392;12.342;2024-03-22T08:12:45;100331.03;;;10.44;68.85
86525;BME280;77167;51.392;12.342;2024-03-22T08:15:11;100330.00;;;10.45;68.37
86525;BME280;77167;51.392;12.342;2024-03-22T08:17:36;100325.72;;;10.51;67.94
86525;BME280;77167;51.392;12.342;2024-03-22T08:20:02;100317.72;;;10.58;68.23
86525;BME280;77167;51.392;12.342;2024-03-22T08:22:28;100314.56;;;10.69;68.22
86525;BME280;77167;51.392;12.342;2024-03-22T08:24:53;100309.72;;;10.79;67.83
86525;BME280;77167;51.392;12.342;2024-03-22T08:27:21;100311.59;;;10.93;67.57
86525;BME280;77167;51.392;12.342;2024-03-22T08:29:46;100305.06;;;11.02;67.01
86525;BME280;77167;51.392;12.342;2024-03-22T08:32:11;100305.44;;;11.14;66.67
86525;BME280;77167;51.392;12.342;2024-03-22T08:34:37;100300.34;;;11.40;65.93
86525;BME280;77167;51.392;12.342;2024-03-22T08:37:02;100310.28;;;11.55;65.28
86525;BME280;77167;51.392;12.342;2024-03-22T08:39:29;100311.34;;;11.75;64.87
86525;BME280;77167;51.392;12.342;2024-03-22T08:41:55;100303.66;;;11.79;64.61
86525;BME280;77167;51.392;12.342;2024-03-22T08:44:20;100299.50;;;11.76;64.67
86525;BME280;77167;51.392;12.342;2024-03-22T08:46:47;100300.13;;;11.78;64.60
86525;BME280;77167;51.392;12.342;2024-03-22T08:49:12;100296.22;;;11.81;64.42
86525;BME280;77167;51.392;12.342;2024-03-22T08:51:38;100292.22;;;11.77;64.91
86525;BME280;77167;51.392;12.342;2024-03-22T08:54:03;100289.88;;;11.74;65.12
86525;BME280;77167;51.392;12.342;2024-03-22T08:56:29;100267.47;;;11.80;65.17
86525;BME280;77167;51.392;12.342;2024-03-22T08:58:55;100262.75;;;11.82;65.02
86525;BME280;77167;51.392;12.342;2024-03-22T09:01:21;100256.72;;;11.86;65.16
86525;BME280;77167;51.392;12.342;2024-03-22T09:03:47;100257.81;;;11.92;64.55
86525;BME280;77167;51.392;12.342;2024-03-22T09:06:16;100241.56;;;11.92;64.56
86525;BME280;77167;51.392;12.342;2024-03-22T09:08:41;100252.41;;;11.92;64.87
86525;BME280;77167;51.392;12.342;2024-03-22T09:11:06;100250.16;;;11.95;64.24
86525;BME280;77167;51.392;12.342;2024-03-22T09:13:32;100249.38;;;12.02;64.20
86525;BME280;77167;51.392;12.342;2024-03-22T09:16:00;100256.97;;;12.13;64.09
86525;BME280;77167;51.392;12.342;2024-03-22T09:18:26;100242.44;;;12.20;63.89
86525;BME280;77167;51.392;12.342;2024-03-22T09:20:53;100247.72;;;12.29;63.29
86525;BME280;77167;51.392;12.342;2024-03-22T09:23:18;100234.22;;;12.35;63.03
86525;BME280;77167;51.392;12.342;2024-03-22T09:25:44;100226.34;;;12.40;63.21
86525;BME280;77167;51.392;12.342;2024-03-22T09:28:10;100231.16;;;12.45;63.15
86525;BME280;77167;51.392;12.342;2024-03-22T09:30:39;100231.59;;;12.48;63.34
86525;BME280;77167;51.392;12.342;2024-03-22T09:33:05;100225.09;;;12.43;62.34
86525;BME280;77167;51.392;12.342;2024-03-22T09:35:31;100221.34;;;12.44;63.11
86525;BME280;77167;51.392;12.342;2024-03-22T09:37:57;100220.94;;;12.47;63.66
86525;BME280;77167;51.392;12.342;2024-03-22T09:40:22;100216.28;;;12.62;63.03
86525;BME280;77167;51.392;12.342;2024-03-22T09:42:49;100214.63;;;12.68;62.71
86525;BME280;77167;51.392;12.342;2024-03-22T09:45:18;100215.03;;;12.71;62.53
86525;BME280;77167;51.392;12.342;2024-03-22T09:47:45;100213.63;;;12.75;62.07
86525;BME280;77167;51.392;12.342;2024-03-22T09:50:13;100209.69;;;12.84;62.01
86525;BME280;77167;51.392;12.342;2024-03-22T09:52:41;100213.09;;;13.00;61.24
86525;BME280;77167;51.392;12.342;2024-03-22T09:55:07;100205.63;;;13.08;60.86
86525;BME280;77167;51.392;12.342;2024-03-22T09:57:37;100196.47;;;13.16;60.58
86525;BME280;77167;51.392;12.342;2024-03-22T10:00:06;100205.50;;;13.23;60.36
86525;BME280;77167;51.392;12.342;2024-03-22T10:02:32;100195.94;;;13.34;59.94
86525;BME280;77167;51.392;12.342;2024-03-22T10:04:58;100190.28;;;13.42;59.79
86525;BME280;77167;51.392;12.342;2024-03-22T10:07:24;100182.59;;;13.46;59.29
86525;BME280;77167;51.392;12.342;2024-03-22T10:09:51;100180.09;;;13.51;59.19
86525;BME280;77167;51.392;12.342;2024-03-22T10:12:17;100178.84;;;13.47;59.59
86525;BME280;77167;51.392;12.342;2024-03-22T10:14:43;100179.88;;;13.46;59.60
86525;BME280;77167;51.392;12.342;2024-03-22T10:17:09;100176.94;;;13.40;59.61
86525;BME280;77167;51.392;12.342;2024-03-22T10:19:35;100180.28;;;13.36;59.87
86525;BME280;77167;51.392;12.342;2024-03-22T10:22:03;100173.78;;;13.30;60.11
86525;BME280;77167;51.392;12.342;2024-03-22T10:24:30;100164.38;;;13.26;60.58
86525;BME280;77167;51.392;12.342;2024-03-22T10:26:56;100171.06;;;13.30;60.80
86525;BME280;77167;51.392;12.342;2024-03-22T10:29:22;100159.78;;;13.27;59.70
86525;BME280;77167;51.392;12.342;2024-03-22T10:31:50;100163.56;;;13.32;60.78
86525;BME280;77167;51.392;12.342;2024-03-22T10:34:17;100167.94;;;13.40;60.48
86525;BME280;77167;51.392;12.342;2024-03-22T10:36:44;100161.72;;;13.46;60.22
86525;BME280;77167;51.392;12.342;2024-03-22T10:39:10;100153.34;;;13.54;60.16
86525;BME280;77167;51.392;12.342;2024-03-22T10:41:37;100156.09;;;13.61;59.64
86525;BME280;77167;51.392;12.342;2024-03-22T10:44:03;100159.00;;;13.72;59.54
86525;BME280;77167;51.392;12.342;2024-03-22T10:46:30;100154.22;;;13.81;59.51
86525;BME280;77167;51.392;12.342;2024-03-22T10:48:57;100141.25;;;13.96;58.58
86525;BME280;77167;51.392;12.342;2024-03-22T10:51:24;100138.94;;;14.07;58.83
86525;BME280;77167;51.392;12.342;2024-03-22T10:53:53;100135.38;;;14.13;58.63
86525;BME280;77167;51.392;12.342;2024-03-22T10:56:19;100141.00;;;14.18;57.54
86525;BME280;77167;51.392;12.342;2024-03-22T10:58:47;100137.63;;;14.29;58.05
86525;BME280;77167;51.392;12.342;2024-03-22T11:01:23;100138.66;;;14.41;58.16
86525;BME280;77167;51.392;12.342;2024-03-22T11:03:48;100129.25;;;14.50;57.87
86525;BME280;77167;51.392;12.342;2024-03-22T11:06:18;100123.16;;;14.62;57.48
86525;BME280;77167;51.392;12.342;2024-03-22T11:08:44;100115.38;;;14.72;57.05
86525;BME280;77167;51.392;12.342;2024-03-22T11:11:11;100111.16;;;14.76;56.53
86525;BME280;77167;51.392;12.342;2024-03-22T11:13:38;100113.22;;;14.80;56.91
86525;BME280;77167;51.392;12.342;2024-03-22T11:16:04;100111.91;;;14.89;56.83
86525;BME280;77167;51.392;12.342;2024-03-22T11:18:30;100108.97;;;14.91;56.54
86525;BME280;77167;51.392;12.342;2024-03-22T11:20:55;100109.53;;;15.06;56.22
86525;BME280;77167;51.392;12.342;2024-03-22T11:23:21;100095.09;;;15.06;56.15
86525;BME280;77167;51.392;12.342;2024-03-22T11:25:46;100088.41;;;15.02;56.08
86525;BME280;77167;51.392;12.342;2024-03-22T11:28:12;100080.47;;;15.00;56.38
86525;BME280;77167;51.392;12.342;2024-03-22T11:30:37;100081.28;;;15.01;56.48
86525;BME280;77167;51.392;12.342;2024-03-22T11:33:04;100080.97;;;15.15;56.04
86525;BME280;77167;51.392;12.342;2024-03-22T11:35:31;100069.22;;;15.22;55.33
86525;BME280;77167;51.392;12.342;2024-03-22T11:37:57;100066.88;;;15.25;55.57
86525;BME280;77167;51.392;12.342;2024-03-22T11:40:25;100059.91;;;15.36;55.46
86525;BME280;77167;51.392;12.342;2024-03-22T11:42:52;100058.31;;;15.53;54.87
86525;BME280;77167;51.392;12.342;2024-03-22T11:45:19;100049.03;;;15.61;54.56
86525;BME280;77167;51.392;12.342;2024-03-22T11:47:46;100047.13;;;15.61;54.76
86525;BME280;77167;51.392;12.342;2024-03-22T11:50:12;100037.13;;;15.55;54.64
86525;BME280;77167;51.392;12.342;2024-03-22T11:52:40;100049.94;;;15.48;54.63
86525;BME280;77167;51.392;12.342;2024-03-22T11:55:06;100042.69;;;15.42;55.16
86525;BME280;77167;51.392;12.342;2024-03-22T11:57:33;100040.41;;;15.39;55.12
86525;BME280;77167;51.392;12.342;2024-03-22T12:00:00;100036.66;;;15.40;55.17
86525;BME280;77167;51.392;12.342;2024-03-22T12:02:25;100029.09;;;15.42;54.81
86525;BME280;77167;51.392;12.342;2024-03-22T12:04:51;100033.94;;;15.40;54.56
86525;BME280;77167;51.392;12.342;2024-03-22T12:07:17;100031.50;;;15.50;54.46
86525;BME280;77167;51.392;12.342;2024-03-22T12:09:43;100026.41;;;15.60;54.96
86525;BME280;77167;51.392;12.342;2024-03-22T12:12:11;100016.69;;;15.71;54.67
86525;BME280;77167;51.392;12.342;2024-03-22T12:14:37;100022.13;;;15.71;54.71
86525;BME280;77167;51.392;12.342;2024-03-22T12:17:02;100013.72;;;15.72;54.32
86525;BME280;77167;51.392;12.342;2024-03-22T12:19:28;100007.91;;;15.69;54.29
86525;BME280;77167;51.392;12.342;2024-03-22T12:21:54;100004.19;;;15.63;54.89
86525;BME280;77167;51.392;12.342;2024-03-22T12:24:19;99999.19;;;15.60;54.78
86525;BME280;77167;51.392;12.342;2024-03-22T12:26:45;99985.56;;;15.60;54.77
86525;BME280;77167;51.392;12.342;2024-03-22T12:29:12;99991.63;;;15.62;55.31
86525;BME280;77167;51.392;12.342;2024-03-22T12:31:38;99987.19;;;15.68;55.21
86525;BME280;77167;51.392;12.342;2024-03-22T12:34:03;99976.66;;;15.71;54.48
86525;BME280;77167;51.392;12.342;2024-03-22T12:36:29;99979.78;;;15.75;54.25
86525;BME280;77167;51.392;12.342;2024-03-22T12:38:54;99970.31;;;15.78;54.61